Time;durP1;ratioP1;P1;durP2;ratioP2;P2;SDS_P1;SDS_P2;PMS_P1;PMS_P2;Temp;Humidity;BMP_temperature;BMP_pressure;BME280_temperature;BME280_humidity;BME280_pressure;Samples;Min_cycle;Max_cycle;Signal;HPM_P1;HPM_P2
2021/01/12 00:00:08;;;;;;;6.43;4.38;;;7.40;89.70;;;;;;4980720;28;20026;-88
2021/01/12 00:02:34;;;;;;;6.32;4.22;;;7.40;89.70;;;;;;4969405;28;20041;-88
2021/01/12 00:04:59;;;;;;;6.38;4.88;;;7.40;89.70;;;;;;4982261;28;20018;-88
2021/01/12 00:07:25;;;;;;;6.53;5.28;;;7.40;89.80;;;;;;4984398;28;20034;-89
2021/01/12 00:09:51;;;;;;;7.40;5.45;;;7.40;89.70;;;;;;4985641;28;20023;-87
2021/01/12 00:12:18;;;;;;;5.45;4.57;;;7.50;89.80;;;;;;4972598;28;20773;-88
2021/01/12 00:14:44;;;;;;;6.70;4.90;;;7.50;89.80;;;;;;4990765;28;20038;-87
2021/01/12 00:17:10;;;;;;;5.55;4.50;;;7.50;89.80;;;;;;4987600;28;20019;-87
2021/01/12 00:19:37;;;;;;;5.93;4.72;;;7.50;89.80;;;;;;4988539;28;20081;-87
2021/01/12 00:22:06;;;;;;;6.30;4.97;;;7.50;89.90;;;;;;4989757;28;20038;-88
2021/01/12 00:24:32;;;;;;;5.50;4.03;;;7.50;89.90;;;;;;4987534;28;20428;-87
2021/01/12 00:26:58;;;;;;;5.43;4.07;;;7.60;90.00;;;;;;4986736;28;20101;-87
2021/01/12 00:29:23;;;;;;;4.95;4.05;;;7.50;89.90;;;;;;4987798;28;20030;-87
2021/01/12 00:31:49;;;;;;;5.22;4.15;;;7.60;89.90;;;;;;4989956;28;20062;-87
2021/01/12 00:34:14;;;;;;;8.05;5.60;;;7.60;89.90;;;;;;4990256;28;20090;-88
2021/01/12 00:36:52;;;;;;;6.05;4.40;;;7.60;90.00;;;;;;4988046;28;20041;-88
2021/01/12 00:39:19;;;;;;;5.18;4.32;;;7.60;90.00;;;;;;4987814;28;20034;-87
2021/01/12 00:41:46;;;;;;;6.43;4.97;;;7.60;90.00;;;;;;4992100;28;20591;-89
2021/01/12 00:44:12;;;;;;;6.22;4.78;;;7.60;90.10;;;;;;4990563;28;20181;-90
2021/01/12 00:46:42;;;;;;;5.10;3.85;;;7.50;90.10;;;;;;4995426;28;20055;-89
2021/01/12 00:49:08;;;;;;;4.68;3.72;;;7.60;90.10;;;;;;5013448;28;20021;-90
2021/01/12 00:51:35;;;;;;;7.68;5.55;;;7.60;90.10;;;;;;4991323;28;20034;-90
2021/01/12 00:54:01;;;;;;;4.75;3.80;;;7.60;90.10;;;;;;4971438;28;20105;-88
2021/01/12 00:56:26;;;;;;;5.97;4.95;;;7.60;90.20;;;;;;4966970;28;20114;-89
2021/01/12 00:58:52;;;;;;;6.93;5.40;;;7.60;90.20;;;;;;4989906;28;20041;-89
2021/01/12 01:01:17;;;;;;;6.05;4.72;;;7.60;90.20;;;;;;4991689;28;20038;-89
2021/01/12 01:03:43;;;;;;;6.03;4.47;;;7.60;90.20;;;;;;4989794;28;20093;-89
2021/01/12 01:06:08;;;;;;;4.55;4.07;;;7.60;90.20;;;;;;4993345;28;20027;-88
2021/01/12 01:08:35;;;;;;;4.95;4.45;;;7.60;90.20;;;;;;4995009;28;20110;-88
2021/01/12 01:11:04;;;;;;;7.60;4.90;;;7.60;90.20;;;;;;4992668;28;20050;-89
2021/01/12 01:13:29;;;;;;;9.73;6.88;;;7.60;90.20;;;;;;4991342;28;20065;-90
2021/01/12 01:15:55;;;;;;;8.45;6.40;;;7.60;90.20;;;;;;4992259;28;20070;-89
2021/01/12 01:18:21;;;;;;;7.38;5.22;;;7.60;90.20;;;;;;5005848;28;20018;-89
2021/01/12 01:20:48;;;;;;;7.82;6.15;;;7.60;90.20;;;;;;5000106;28;20034;-90
2021/01/12 01:23:14;;;;;;;7.38;5.18;;;7.60;90.20;;;;;;4997141;28;20105;-90
2021/01/12 01:25:40;;;;;;;6.03;5.43;;;7.60;90.30;;;;;;4991465;28;20169;-89
2021/01/12 01:28:06;;;;;;;7.53;6.35;;;7.60;90.50;;;;;;4980906;28;20100;-89
2021/01/12 01:30:31;;;;;;;5.32;4.82;;;7.60;90.30;;;;;;4999499;28;20035;-89
2021/01/12 01:32:58;;;;;;;6.72;5.35;;;7.60;90.20;;;;;;4993207;28;20023;-89
2021/01/12 01:35:24;;;;;;;6.07;5.47;;;7.70;90.20;;;;;;4983722;28;20113;-89
2021/01/12 01:37:50;;;;;;;6.57;5.25;;;7.70;90.20;;;;;;4993361;28;20476;-88
2021/01/12 01:40:19;;;;;;;7.85;6.35;;;7.70;90.20;;;;;;4987663;28;20121;-88
2021/01/12 01:42:44;;;;;;;6.70;5.80;;;7.70;90.20;;;;;;4980589;28;20026;-87
2021/01/12 01:45:10;;;;;;;5.57;4.85;;;7.70;90.20;;;;;;4971537;28;20432;-87
2021/01/12 01:47:42;;;;;;;6.35;5.50;;;7.70;90.30;;;;;;4988486;28;20476;-88
2021/01/12 01:50:12;;;;;;;6.88;6.18;;;7.70;90.30;;;;;;4973043;28;20630;-87
2021/01/12 01:52:39;;;;;;;4.90;4.40;;;7.70;90.30;;;;;;4989483;28;20027;-88
2021/01/12 01:55:10;;;;;;;6.97;5.40;;;7.70;90.20;;;;;;4974714;28;20242;-88
2021/01/12 01:57:35;;;;;;;7.03;5.85;;;7.70;90.20;;;;;;4991127;28;20026;-88
2021/01/12 02:00:04;;;;;;;6.90;5.75;;;7.70;90.20;;;;;;4987070;28;20022;-88
2021/01/12 02:02:30;;;;;;;5.78;4.55;;;7.70;90.30;;;;;;4987860;28;20031;-88
2021/01/12 02:05:01;;;;;;;5.88;5.20;;;7.70;90.20;;;;;;4990305;28;20057;-88
2021/01/12 02:07:28;;;;;;;5.55;4.88;;;7.70;90.20;;;;;;4989549;28;20030;-88
2021/01/12 02:09:54;;;;;;;5.47;4.60;;;7.70;90.20;;;;;;4991777;28;20048;-88
2021/01/12 02:12:26;;;;;;;4.82;4.18;;;7.70;90.20;;;;;;4989429;28;20105;-86
2021/01/12 02:14:53;;;;;;;5.80;5.18;;;7.80;90.20;;;;;;4991389;28;20022;-87
2021/01/12 02:17:19;;;;;;;6.07;5.03;;;7.80;90.20;;;;;;4989696;28;20030;-88
2021/01/12 02:19:46;;;;;;;8.57;5.93;;;7.70;90.20;;;;;;5006641;28;20033;-88
2021/01/12 02:22:19;;;;;;;4.43;3.88;;;7.70;90.30;;;;;;4994865;28;20092;-88
2021/01/12 02:24:45;;;;;;;5.03;4.45;;;7.80;90.30;;;;;;4974407;28;20540;-88
2021/01/12 02:27:10;;;;;;;6.18;4.10;;;7.80;90.20;;;;;;4991707;28;20157;-88
2021/01/12 02:29:36;;;;;;;4.47;3.85;;;7.80;90.20;;;;;;4985688;28;20027;-89
2021/01/12 02:32:01;;;;;;;5.13;4.63;;;7.80;90.20;;;;;;4987935;28;20104;-91
2021/01/12 02:34:28;;;;;;;4.03;2.95;;;7.80;90.20;;;;;;4990502;28;20046;-89
2021/01/12 02:36:54;;;;;;;4.28;3.40;;;7.80;90.30;;;;;;4989909;28;20021;-90
2021/01/12 02:39:20;;;;;;;3.03;2.60;;;7.90;90.30;;;;;;4989099;28;20076;-89
2021/01/12 02:41:46;;;;;;;3.58;3.28;;;7.80;90.30;;;;;;4993506;28;20019;-90
2021/01/12 02:44:20;;;;;;;4.40;3.25;;;7.90;90.30;;;;;;5001660;28;20121;-89
2021/01/12 02:46:45;;;;;;;4.85;3.92;;;8.00;90.30;;;;;;4988655;28;20034;-90
2021/01/12 02:49:11;;;;;;;5.82;3.85;;;8.10;90.40;;;;;;4979664;28;20440;-91
2021/01/12 02:51:36;;;;;;;3.70;2.88;;;8.00;90.40;;;;;;4993327;28;20061;-89
2021/01/12 02:54:02;;;;;;;6.18;3.75;;;8.00;90.30;;;;;;4996248;28;20037;-89
2021/01/12 02:56:28;;;;;;;3.17;2.40;;;8.00;90.40;;;;;;4992634;28;20080;-90
2021/01/12 02:58:53;;;;;;;3.25;2.60;;;8.00;90.30;;;;;;4989764;28;20022;-90
2021/01/12 03:01:22;;;;;;;3.95;3.00;;;8.10;90.30;;;;;;4990277;28;20495;-90
2021/01/12 03:03:47;;;;;;;3.47;2.80;;;8.10;90.30;;;;;;4988647;28;20025;-89
2021/01/12 03:06:13;;;;;;;7.03;4.45;;;8.10;90.30;;;;;;4991755;28;20632;-87
2021/01/12 03:08:38;;;;;;;3.35;2.38;;;8.10;90.40;;;;;;4970980;28;20029;-87
2021/01/12 03:11:04;;;;;;;3.22;2.80;;;8.10;90.40;;;;;;4991539;28;20022;-87
2021/01/12 03:13:29;;;;;;;3.83;2.95;;;8.10;90.30;;;;;;4971670;28;20077;-88
2021/01/12 03:15:55;;;;;;;4.53;3.17;;;8.10;90.30;;;;;;4989673;28;20030;-88
2021/01/12 03:18:20;;;;;;;4.05;2.85;;;8.10;90.30;;;;;;4989277;28;20487;-88
2021/01/12 03:20:46;;;;;;;4.78;3.22;;;8.10;90.30;;;;;;4974765;28;20026;-88
2021/01/12 03:23:12;;;;;;;3.30;2.65;;;8.20;90.30;;;;;;4983196;28;20372;-88
2021/01/12 03:25:37;;;;;;;4.50;3.15;;;8.20;90.30;;;;;;4969545;28;20022;-87
2021/01/12 03:28:04;;;;;;;4.72;3.22;;;8.20;90.30;;;;;;4987407;28;20030;-87
2021/01/12 03:30:29;;;;;;;5.28;3.20;;;8.20;90.30;;;;;;4971912;28;20493;-88
2021/01/12 03:32:55;;;;;;;4.78;2.40;;;8.30;90.30;;;;;;4987547;28;20022;-87
2021/01/12 03:35:21;;;;;;;2.45;2.15;;;8.30;90.30;;;;;;4973179;28;20038;-88
2021/01/12 03:37:50;;;;;;;3.92;3.00;;;8.30;90.30;;;;;;4990232;28;20519;-88
2021/01/12 03:40:16;;;;;;;5.40;3.20;;;8.30;90.20;;;;;;4986231;28;20034;-87
2021/01/12 03:42:42;;;;;;;4.40;2.97;;;8.30;90.20;;;;;;4985593;28;20025;-88
2021/01/12 03:45:08;;;;;;;4.10;3.03;;;8.30;90.20;;;;;;4992067;28;20026;-88
2021/01/12 03:47:34;;;;;;;3.90;2.38;;;8.30;90.20;;;;;;4999629;28;20678;-86
2021/01/12 03:49:59;;;;;;;3.33;2.22;;;8.30;90.20;;;;;;4989591;28;20015;-88
2021/01/12 03:52:26;;;;;;;3.85;2.70;;;8.30;90.30;;;;;;4999175;28;20121;-88
2021/01/12 03:54:51;;;;;;;2.83;2.10;;;8.30;90.30;;;;;;4990737;28;20321;-88
2021/01/12 03:57:17;;;;;;;2.88;1.80;;;8.30;90.30;;;;;;4993341;28;20110;-87
2021/01/12 03:59:42;;;;;;;2.78;1.92;;;8.40;90.30;;;;;;4997645;28;20074;-88
2021/01/12 04:02:08;;;;;;;2.38;1.83;;;8.40;90.20;;;;;;5002688;28;20098;-87
2021/01/12 04:04:33;;;;;;;2.08;1.45;;;8.40;90.20;;;;;;4999076;28;20026;-87
2021/01/12 04:06:59;;;;;;;1.48;1.38;;;8.40;90.10;;;;;;4991341;28;20054;-90
2021/01/12 04:09:25;;;;;;;3.55;2.00;;;8.40;90.10;;;;;;4984072;28;20030;-89
2021/01/12 04:11:50;;;;;;;2.40;1.60;;;8.40;90.10;;;;;;4978387;28;20074;-89
2021/01/12 04:14:16;;;;;;;2.17;1.38;;;8.40;90.20;;;;;;4974119;28;20121;-88
2021/01/12 04:16:42;;;;;;;2.20;1.38;;;8.50;90.10;;;;;;4978631;28;20018;-89
2021/01/12 04:19:08;;;;;;;1.67;1.30;;;8.50;90.20;;;;;;4986539;28;20029;-89
2021/01/12 04:21:33;;;;;;;1.40;1.20;;;8.50;90.10;;;;;;4994788;28;20038;-88
2021/01/12 04:23:59;;;;;;;2.25;1.30;;;8.50;90.00;;;;;;4971530;28;20441;-88
2021/01/12 04:26:25;;;;;;;3.08;1.52;;;8.50;90.00;;;;;;4987228;28;20460;-87
2021/01/12 04:28:50;;;;;;;1.65;1.45;;;8.50;90.00;;;;;;4971787;28;20022;-88
2021/01/12 04:31:16;;;;;;;1.25;1.15;;;8.50;90.00;;;;;;4991968;28;20046;-88
2021/01/12 04:33:41;;;;;;;4.75;2.08;;;8.50;90.10;;;;;;4971830;28;20554;-88
2021/01/12 04:36:07;;;;;;;2.30;1.70;;;8.50;90.10;;;;;;4987761;28;20100;-87
2021/01/12 04:38:33;;;;;;;2.42;1.88;;;8.50;90.10;;;;;;4991313;28;20077;-88
2021/01/12 04:40:58;;;;;;;1.52;1.42;;;8.50;90.10;;;;;;4993880;28;20030;-88
2021/01/12 04:43:24;;;;;;;2.20;1.63;;;8.50;90.10;;;;;;4992049;28;20093;-89
2021/01/12 04:45:51;;;;;;;1.98;1.60;;;8.50;90.10;;;;;;4999862;28;20022;-89
2021/01/12 04:48:16;;;;;;;1.73;1.42;;;8.50;90.10;;;;;;4991067;28;20622;-88
2021/01/12 04:50:42;;;;;;;2.88;1.95;;;8.60;90.00;;;;;;4990795;28;20113;-89
2021/01/12 04:53:07;;;;;;;3.35;2.28;;;8.60;90.00;;;;;;4990656;28;20026;-89
2021/01/12 04:55:33;;;;;;;1.52;1.40;;;8.60;90.00;;;;;;4992175;28;20160;-90
2021/01/12 04:57:59;;;;;;;1.40;1.30;;;8.60;90.00;;;;;;4994775;28;20635;-87
2021/01/12 05:00:29;;;;;;;2.42;1.80;;;8.60;89.90;;;;;;4989785;28;20034;-88
2021/01/12 05:03:04;;;;;;;1.20;1.10;;;8.60;89.90;;;;;;4973820;28;20026;-87
2021/01/12 05:05:34;;;;;;;2.55;1.55;;;8.70;89.90;;;;;;4989037;28;20026;-87
2021/01/12 05:08:00;;;;;;;1.25;1.00;;;8.70;89.80;;;;;;4992643;28;20041;-87
2021/01/12 05:10:26;;;;;;;1.67;1.50;;;8.70;89.80;;;;;;4972611;28;20068;-88
2021/01/12 05:12:52;;;;;;;1.90;1.40;;;8.70;89.70;;;;;;4981269;28;20129;-87
2021/01/12 05:15:20;;;;;;;1.50;1.40;;;8.70;89.70;;;;;;4989792;28;20130;-88
2021/01/12 05:17:49;;;;;;;2.03;1.67;;;8.70;89.70;;;;;;4993258;28;20491;-87
2021/01/12 05:20:23;;;;;;;2.05;1.52;;;8.70;89.80;;;;;;4995095;28;20030;-88
2021/01/12 05:23:07;;;;;;;2.72;1.75;;;8.70;89.80;;;;;;4977182;28;20054;-87
2021/01/12 05:25:36;;;;;;;1.90;1.55;;;8.70;89.80;;;;;;4988561;28;20500;-87
2021/01/12 05:28:04;;;;;;;2.00;1.70;;;8.80;89.70;;;;;;4981989;28;20018;-87
2021/01/12 05:30:29;;;;;;;2.00;1.77;;;8.80;90.20;;;;;;4994800;28;20034;-87
2021/01/12 05:32:58;;;;;;;3.25;1.90;;;8.80;90.10;;;;;;4973480;28;20045;-88
2021/01/12 05:35:28;;;;;;;1.42;1.30;;;8.80;89.70;;;;;;4991434;28;20030;-88
2021/01/12 05:38:05;;;;;;;1.92;1.60;;;8.80;89.70;;;;;;4997939;28;20026;-88
2021/01/12 05:40:35;;;;;;;2.45;1.95;;;8.80;89.70;;;;;;4998763;28;20377;-88
2021/01/12 05:43:53;;;;;;;1.48;1.38;;;8.80;89.70;;;;;;5005506;28;20072;-88
2021/01/12 05:46:19;;;;;;;2.33;1.95;;;8.80;89.70;;;;;;4979146;28;20174;-88
2021/01/12 05:48:45;;;;;;;2.53;2.08;;;8.80;89.80;;;;;;4990559;28;20484;-88
2021/01/12 05:51:14;;;;;;;2.75;2.05;;;8.80;89.80;;;;;;4987056;28;20026;-88
2021/01/12 05:53:48;;;;;;;1.88;1.77;;;8.80;89.80;;;;;;4974721;28;20041;-87
2021/01/12 05:56:24;;;;;;;1.42;1.30;;;8.80;89.80;;;;;;4990568;28;20034;-87
2021/01/12 05:58:54;;;;;;;1.30;1.20;;;8.80;89.90;;;;;;4986305;28;20034;-87
2021/01/12 06:01:47;;;;;;;2.33;1.20;;;8.80;89.80;;;;;;4970347;28;20026;-87
2021/01/12 06:04:13;;;;;;;0.98;0.90;;;8.80;89.80;;;;;;4972755;28;20019;-87
2021/01/12 06:06:44;;;;;;;0.90;0.70;;;8.80;89.70;;;;;;4988656;28;20038;-87
2021/01/12 06:09:11;;;;;;;1.40;0.80;;;8.80;89.70;;;;;;4988773;28;20030;-87
2021/01/12 06:11:38;;;;;;;1.52;1.00;;;8.80;89.70;;;;;;4986004;28;20027;-87
2021/01/12 06:14:15;;;;;;;1.40;0.85;;;8.80;89.60;;;;;;4987660;28;20477;-89
2021/01/12 06:16:43;;;;;;;0.80;0.80;;;8.80;89.60;;;;;;4970369;28;20049;-87
2021/01/12 06:19:17;;;;;;;1.55;1.40;;;8.80;89.50;;;;;;4983580;28;20215;-88
2021/01/12 06:21:55;;;;;;;1.58;1.10;;;8.80;89.40;;;;;;4970735;28;20030;-87
2021/01/12 06:25:10;;;;;;;0.93;0.93;;;8.80;89.40;;;;;;4967132;28;20178;-91
2021/01/12 06:27:37;;;;;;;2.15;1.30;;;8.90;89.40;;;;;;4983256;28;20465;-91
2021/01/12 06:30:18;;;;;;;1.65;1.15;;;8.90;90.00;;;;;;4975556;28;20053;-89
2021/01/12 06:32:57;;;;;;;1.10;1.00;;;8.90;89.30;;;;;;4988689;28;20026;-90
2021/01/12 06:35:38;;;;;;;3.85;2.28;;;8.90;89.30;;;;;;4982592;28;20034;-92
2021/01/12 06:38:25;;;;;;;1.38;1.27;;;8.90;89.30;;;;;;4973709;28;20029;-91
2021/01/12 06:41:19;;;;;;;1.90;1.50;;;8.90;89.30;;;;;;4975924;28;20044;-92
2021/01/12 06:43:50;;;;;;;2.00;1.70;;;8.90;89.30;;;;;;4985770;28;20036;-89
2021/01/12 06:46:19;;;;;;;1.85;1.60;;;8.80;89.30;;;;;;4968888;28;20027;-87
2021/01/12 06:48:45;;;;;;;1.73;1.45;;;8.80;89.30;;;;;;4989755;28;20072;-89
2021/01/12 06:51:13;;;;;;;1.90;1.70;;;8.80;89.30;;;;;;4995797;28;20071;-88
2021/01/12 06:53:46;;;;;;;2.13;1.70;;;8.80;89.30;;;;;;4996330;28;20125;-88
2021/01/12 06:56:11;;;;;;;1.58;1.48;;;8.80;89.40;;;;;;4983447;28;20038;-88
2021/01/12 06:58:44;;;;;;;1.55;1.10;;;8.80;89.40;;;;;;4985506;28;20533;-88
2021/01/12 07:01:20;;;;;;;3.03;1.42;;;8.80;89.40;;;;;;4999716;28;20042;-86
2021/01/12 07:03:49;;;;;;;1.83;1.50;;;8.80;89.30;;;;;;4989141;28;20079;-89
2021/01/12 07:06:25;;;;;;;1.52;1.40;;;8.80;89.30;;;;;;4994356;28;20042;-88
2021/01/12 07:08:53;;;;;;;2.05;1.45;;;8.80;89.30;;;;;;4999988;28;20113;-90
2021/01/12 07:11:21;;;;;;;1.65;1.38;;;8.80;89.30;;;;;;4992503;28;20030;-91
2021/01/12 07:13:50;;;;;;;1.75;1.60;;;8.80;90.00;;;;;;4999185;28;20029;-93
2021/01/12 07:16:15;;;;;;;2.63;1.50;;;8.70;89.40;;;;;;4974267;28;20492;-89
2021/01/12 07:18:44;;;;;;;2.10;1.58;;;8.80;89.40;;;;;;4968979;28;20037;-89
2021/01/12 07:21:15;;;;;;;3.28;1.45;;;8.80;89.40;;;;;;4976761;28;20588;-90
2021/01/12 07:23:42;;;;;;;1.97;1.37;;;8.80;89.30;;;;;;4995085;28;20022;-90
2021/01/12 07:26:23;;;;;;;2.58;1.65;;;8.70;89.30;;;;;;4979765;28;20026;-96
2021/01/12 07:28:48;;;;;;;2.47;1.30;;;8.70;89.30;;;;;;4987569;28;20042;-91
2021/01/12 07:31:14;;;;;;;2.75;1.30;;;8.70;89.30;;;;;;4990456;28;20023;-91
2021/01/12 07:33:40;;;;;;;3.05;1.50;;;8.70;89.20;;;;;;4991226;28;20086;-91
2021/01/12 07:36:08;;;;;;;2.63;1.40;;;8.70;89.20;;;;;;4985457;28;20058;-89
2021/01/12 07:38:34;;;;;;;1.48;1.23;;;8.60;89.20;;;;;;4988996;28;20449;-91
2021/01/12 07:41:02;;;;;;;3.60;1.40;;;8.70;89.20;;;;;;4992458;28;20030;-92
2021/01/12 07:43:28;;;;;;;3.58;1.50;;;8.60;89.10;;;;;;4970736;28;20019;-90
2021/01/12 07:45:55;;;;;;;2.47;1.50;;;8.60;89.10;;;;;;4978986;28;20488;-89
2021/01/12 07:48:22;;;;;;;3.30;1.67;;;8.70;89.20;;;;;;4986200;28;20073;-90
2021/01/12 07:50:49;;;;;;;3.90;2.20;;;8.60;89.00;;;;;;4987693;28;20034;-86
2021/01/12 07:53:15;;;;;;;1.83;1.67;;;8.60;89.00;;;;;;4997545;28;20030;-88
2021/01/12 07:55:42;;;;;;;2.53;1.75;;;8.60;89.10;;;;;;4977447;28;20149;-88
2021/01/12 07:58:09;;;;;;;3.38;2.10;;;8.60;89.10;;;;;;4988809;28;20026;-95
2021/01/12 08:00:36;;;;;;;3.50;2.00;;;8.60;89.10;;;;;;4999343;28;20076;-95
2021/01/12 08:03:03;;;;;;;2.15;1.60;;;8.60;89.10;;;;;;4988648;28;20030;-92
2021/01/12 08:05:28;;;;;;;2.92;1.88;;;8.60;89.10;;;;;;4979602;28;20419;-93
2021/01/12 08:08:05;;;;;;;3.63;1.92;;;8.60;89.10;;;;;;5000788;28;20026;-92
2021/01/12 08:10:41;;;;;;;1.80;1.42;;;8.60;89.00;;;;;;4991644;28;20029;-94
2021/01/12 08:13:10;;;;;;;2.58;1.50;;;8.60;89.00;;;;;;4993982;28;20045;-93
2021/01/12 08:15:45;;;;;;;2.25;1.80;;;8.60;89.00;;;;;;5052763;22;20101;-92
2021/01/12 08:18:18;;;;;;;2.63;2.05;;;8.50;88.90;;;;;;5003272;28;20018;-96
2021/01/12 08:20:44;;;;;;;;;;;8.50;88.90;;;;;;5035632;28;20033;-92
2021/01/12 08:23:13;;;;;;;2.70;1.85;;;8.50;88.90;;;;;;5027466;28;20005;-96
2021/01/12 08:25:39;;;;;;;3.65;2.00;;;8.40;89.00;;;;;;5005113;28;20594;-93
2021/01/12 08:28:09;;;;;;;2.30;2.08;;;8.40;89.10;;;;;;5027848;22;20070;-95
2021/01/12 08:30:35;;;;;;;3.22;2.20;;;8.40;89.20;;;;;;4961730;28;20113;-90
2021/01/12 08:33:13;;;;;;;3.65;2.25;;;8.30;89.20;;;;;;4974958;28;20103;-89
2021/01/12 08:35:53;;;;;;;3.20;2.08;;;8.30;89.20;;;;;;4972902;28;20039;-89
2021/01/12 08:38:22;;;;;;;3.80;2.13;;;8.30;89.20;;;;;;4975079;28;20035;-88
2021/01/12 08:40:48;;;;;;;1.80;1.70;;;8.30;89.20;;;;;;4972752;28;20035;-89
2021/01/12 08:43:20;;;;;;;1.90;1.58;;;8.30;89.20;;;;;;4985070;28;20023;-91
2021/01/12 08:45:46;;;;;;;1.93;1.30;;;8.20;89.10;;;;;;4976925;28;20071;-93
2021/01/12 08:48:17;;;;;;;1.83;1.00;;;8.10;88.80;;;;;;4957934;28;20397;-93
2021/01/12 08:50:46;;;;;;;1.58;1.05;;;8.10;88.80;;;;;;4975919;28;20023;-92
2021/01/12 08:53:25;;;;;;;3.00;1.13;;;8.00;88.70;;;;;;4980463;28;20208;-93
2021/01/12 08:56:02;;;;;;;2.40;1.10;;;8.00;88.70;;;;;;4979899;28;20026;-90
2021/01/12 08:58:28;;;;;;;2.13;1.40;;;8.00;88.60;;;;;;4969102;28;20027;-92
2021/01/12 09:00:53;;;;;;;2.58;1.30;;;7.90;88.40;;;;;;4953992;28;20034;-91
2021/01/12 09:03:20;;;;;;;2.38;1.00;;;7.90;88.90;;;;;;4970426;28;20527;-92
2021/01/12 09:05:45;;;;;;;1.20;1.10;;;7.90;88.40;;;;;;4951958;28;20031;-93
2021/01/12 09:08:23;;;;;;;2.25;1.20;;;7.90;88.30;;;;;;4977144;28;20085;-96
2021/01/12 09:10:50;;;;;;;1.73;1.00;;;7.80;88.20;;;;;;4958395;28;20500;-91
2021/01/12 09:13:24;;;;;;;1.42;0.90;;;7.80;88.10;;;;;;4969992;28;20046;-91
2021/01/12 09:15:51;;;;;;;1.40;0.90;;;7.90;88.00;;;;;;4953130;28;20030;-86
2021/01/12 09:18:19;;;;;;;1.13;0.80;;;7.90;87.80;;;;;;4956759;28;20024;-84
2021/01/12 09:20:55;;;;;;;3.55;1.13;;;7.80;87.50;;;;;;4972192;28;20115;-88
2021/01/12 09:23:22;;;;;;;1.88;0.90;;;7.80;87.60;;;;;;4972615;28;20061;-93
2021/01/12 09:25:52;;;;;;;1.98;1.20;;;7.80;87.50;;;;;;4976737;28;20030;-91
2021/01/12 09:28:23;;;;;;;1.65;1.00;;;7.70;87.50;;;;;;4981590;28;20043;-84
2021/01/12 09:30:49;;;;;;;3.05;0.90;;;7.70;87.50;;;;;;4982290;28;20035;-83
2021/01/12 09:33:23;;;;;;;2.25;1.40;;;7.70;87.60;;;;;;4972135;28;20027;-82
2021/01/12 09:36:03;;;;;;;1.55;0.93;;;7.60;87.60;;;;;;4979645;28;20049;-83
2021/01/12 09:38:39;;;;;;;3.60;1.10;;;7.50;87.60;;;;;;4973277;28;20031;-82
2021/01/12 09:41:05;;;;;;;1.25;0.93;;;7.50;87.80;;;;;;4979186;28;20046;-86
2021/01/12 09:43:32;;;;;;;2.25;1.17;;;7.50;87.90;;;;;;4973817;28;20114;-87
2021/01/12 09:45:57;;;;;;;1.83;1.00;;;7.50;87.90;;;;;;4974043;28;20373;-82
2021/01/12 09:48:34;;;;;;;2.95;1.20;;;7.50;87.90;;;;;;4966207;28;20035;-85
2021/01/12 09:51:00;;;;;;;3.20;1.00;;;7.50;88.00;;;;;;4975478;28;20022;-87
2021/01/12 09:53:25;;;;;;;4.55;1.33;;;7.50;88.00;;;;;;4988723;28;20046;-85
2021/01/12 09:55:51;;;;;;;2.13;0.90;;;7.40;87.90;;;;;;4984669;28;20035;-86
2021/01/12 09:58:17;;;;;;;2.17;1.10;;;7.40;88.00;;;;;;4965549;28;20334;-85
2021/01/12 10:00:43;;;;;;;2.05;0.82;;;7.50;88.00;;;;;;4958139;28;20564;-86
2021/01/12 10:03:10;;;;;;;2.83;0.85;;;7.50;88.00;;;;;;4967225;28;20023;-86
2021/01/12 10:05:41;;;;;;;3.97;1.10;;;7.50;87.90;;;;;;4941762;28;20035;-84
2021/01/12 10:08:07;;;;;;;3.33;1.00;;;7.50;87.90;;;;;;4970175;28;20046;-85
2021/01/12 10:10:34;;;;;;;3.83;0.80;;;7.50;87.80;;;;;;4950971;28;20031;-87
2021/01/12 10:13:01;;;;;;;2.55;1.10;;;7.50;87.80;;;;;;4943126;28;20103;-85
2021/01/12 10:15:27;;;;;;;3.40;0.90;;;7.40;87.80;;;;;;4948732;28;20493;-85
2021/01/12 10:17:53;;;;;;;2.95;0.90;;;7.40;87.80;;;;;;4950515;28;20031;-86
2021/01/12 10:20:19;;;;;;;3.65;0.95;;;7.50;87.80;;;;;;4970336;28;20031;-85
2021/01/12 10:22:44;;;;;;;3.75;0.90;;;7.40;87.70;;;;;;4952770;28;20030;-85
2021/01/12 10:25:11;;;;;;;2.08;0.90;;;7.40;87.60;;;;;;4950754;28;20058;-86
2021/01/12 10:27:43;;;;;;;1.45;0.77;;;7.30;87.50;;;;;;4967686;28;20039;-84
2021/01/12 10:30:10;;;;;;;2.38;0.80;;;7.30;87.50;;;;;;4952821;28;20030;-85
2021/01/12 10:32:36;;;;;;;2.45;0.93;;;7.30;87.50;;;;;;4963886;28;20027;-88
2021/01/12 10:35:02;;;;;;;2.53;0.75;;;7.30;87.50;;;;;;4950686;28;20030;-86
2021/01/12 10:37:29;;;;;;;1.92;0.55;;;7.30;87.40;;;;;;4951416;28;20093;-87
2021/01/12 10:39:55;;;;;;;2.30;0.60;;;7.30;87.30;;;;;;4969700;28;20027;-85
2021/01/12 10:42:21;;;;;;;0.65;0.55;;;7.30;87.40;;;;;;4964979;28;20038;-85
2021/01/12 10:44:47;;;;;;;2.17;0.65;;;7.30;87.50;;;;;;4974057;28;20015;-87
2021/01/12 10:47:15;;;;;;;1.38;0.55;;;7.30;87.30;;;;;;4951967;28;20085;-85
2021/01/12 10:49:41;;;;;;;2.40;0.75;;;7.20;87.70;;;;;;4969416;28;20019;-85
2021/01/12 10:52:07;;;;;;;1.02;0.70;;;7.10;86.90;;;;;;4969620;28;20042;-85
2021/01/12 10:54:34;;;;;;;1.92;0.70;;;7.10;86.90;;;;;;4969691;28;20050;-83
2021/01/12 10:57:02;;;;;;;0.68;0.50;;;7.10;87.00;;;;;;4960386;28;20158;-84
2021/01/12 10:59:28;;;;;;;1.33;0.60;;;7.20;87.00;;;;;;4952265;28;20056;-88
2021/01/12 11:01:57;;;;;;;1.15;0.50;;;7.20;86.80;;;;;;4961793;28;20027;-86
2021/01/12 11:04:24;;;;;;;1.73;0.50;;;7.20;86.70;;;;;;4951996;28;20094;-87
2021/01/12 11:06:51;;;;;;;1.27;0.52;;;7.20;86.60;;;;;;4960053;28;20050;-84
2021/01/12 11:09:20;;;;;;;1.80;0.60;;;7.30;86.50;;;;;;4964397;28;20031;-84
2021/01/12 11:11:48;;;;;;;1.92;0.63;;;7.40;86.40;;;;;;4955100;28;20035;-85
2021/01/12 11:14:18;;;;;;;1.25;0.57;;;7.40;86.20;;;;;;4948924;28;20111;-87
2021/01/12 11:16:45;;;;;;;2.05;0.40;;;7.40;86.20;;;;;;4952083;28;20026;-84
2021/01/12 11:19:12;;;;;;;1.50;0.57;;;7.40;86.30;;;;;;4957620;28;20119;-85
2021/01/12 11:21:43;;;;;;;1.95;0.60;;;7.40;86.20;;;;;;4962673;28;20124;-86
2021/01/12 11:24:14;;;;;;;1.70;0.70;;;7.40;86.10;;;;;;4951802;28;20027;-87
2021/01/12 11:26:43;;;;;;;2.55;0.80;;;7.40;86.00;;;;;;4954222;28;20058;-86
2021/01/12 11:29:09;;;;;;;2.85;0.93;;;7.40;86.00;;;;;;4964050;28;20421;-86
2021/01/12 11:31:39;;;;;;;2.88;0.65;;;7.50;85.90;;;;;;4974853;28;20035;-86
2021/01/12 11:34:05;;;;;;;3.55;0.80;;;7.50;85.60;;;;;;4960970;28;20033;-85
2021/01/12 11:36:39;;;;;;;3.53;0.77;;;7.40;85.30;;;;;;4970410;28;20047;-85
2021/01/12 11:39:08;;;;;;;3.15;0.80;;;7.40;85.20;;;;;;4958269;28;20031;-86
2021/01/12 11:41:38;;;;;;;4.05;0.77;;;7.50;85.00;;;;;;4955490;28;20096;-86
2021/01/12 11:44:04;;;;;;;2.13;0.65;;;7.50;84.80;;;;;;4943618;28;20026;-85
2021/01/12 11:46:31;;;;;;;3.17;0.73;;;7.50;84.70;;;;;;4961369;28;20031;-85
2021/01/12 11:48:58;;;;;;;1.73;0.80;;;7.50;84.50;;;;;;4977643;28;20019;-86
2021/01/12 11:51:23;;;;;;;3.78;0.90;;;7.50;84.30;;;;;;4969300;28;21362;-86
2021/01/12 11:53:51;;;;;;;3.05;0.90;;;7.60;83.90;;;;;;4966942;28;20077;-87
2021/01/12 11:56:20;;;;;;;3.63;1.02;;;7.50;83.40;;;;;;4960796;28;20406;-85
2021/01/12 11:58:45;;;;;;;5.40;1.27;;;7.50;83.30;;;;;;4957072;28;20031;-86
2021/01/12 12:01:11;;;;;;;5.78;1.27;;;7.60;82.90;;;;;;4965007;28;20033;-88
2021/01/12 12:03:37;;;;;;;3.63;1.00;;;7.60;82.80;;;;;;4979097;28;20022;-89
2021/01/12 12:06:03;;;;;;;3.00;0.90;;;7.70;82.20;;;;;;4947168;28;20038;-89
2021/01/12 12:08:29;;;;;;;2.95;1.08;;;7.70;82.10;;;;;;4965971;28;20027;-89
2021/01/12 12:10:54;;;;;;;3.25;1.10;;;7.70;81.50;;;;;;4964218;28;20116;-89
2021/01/12 12:13:20;;;;;;;4.40;1.10;;;7.70;81.10;;;;;;4974131;28;20022;-89
2021/01/12 12:15:48;;;;;;;5.18;1.27;;;7.70;80.70;;;;;;4966168;28;20046;-89
2021/01/12 12:18:14;;;;;;;3.20;0.98;;;7.60;79.90;;;;;;4966818;28;20031;-87
2021/01/12 12:20:41;;;;;;;5.18;0.80;;;7.70;79.80;;;;;;4970394;28;20297;-88
2021/01/12 12:23:06;;;;;;;3.00;0.80;;;7.80;80.60;;;;;;4974256;28;20038;-89
2021/01/12 12:25:32;;;;;;;3.53;0.85;;;8.00;80.00;;;;;;4971567;28;20357;-88
2021/01/12 12:27:57;;;;;;;4.47;1.10;;;8.10;78.70;;;;;;4958465;28;20031;-88
2021/01/12 12:30:23;;;;;;;3.00;0.80;;;8.10;78.00;;;;;;4965057;28;20527;-87
2021/01/12 12:32:49;;;;;;;2.90;0.82;;;8.10;77.60;;;;;;4965549;28;20030;-88
2021/01/12 12:35:14;;;;;;;3.40;0.80;;;8.10;78.20;;;;;;4964999;28;20034;-89
2021/01/12 12:37:42;;;;;;;3.92;0.80;;;8.40;79.40;;;;;;4971921;28;20362;-87
2021/01/12 12:40:08;;;;;;;7.28;1.00;;;9.90;76.90;;;;;;4954468;28;20030;-89
2021/01/12 12:42:34;;;;;;;3.28;1.00;;;11.30;72.10;;;;;;4973511;28;20392;-86
2021/01/12 12:44:59;;;;;;;3.42;0.82;;;12.20;68.90;;;;;;4971253;28;20027;-88
2021/01/12 12:47:25;;;;;;;4.13;1.08;;;12.80;67.10;;;;;;4963491;28;20043;-88
2021/01/12 12:49:51;;;;;;;2.65;0.77;;;13.20;65.30;;;;;;4963711;28;20038;-89
2021/01/12 12:52:22;;;;;;;4.15;1.15;;;13.40;63.30;;;;;;4974891;28;20562;-87
2021/01/12 12:54:48;;;;;;;4.50;1.10;;;13.60;61.90;;;;;;4953607;28;20121;-90
2021/01/12 12:57:16;;;;;;;2.25;0.70;;;13.80;61.90;;;;;;4957693;28;20136;-89
2021/01/12 12:59:43;;;;;;;3.60;0.90;;;14.00;61.20;;;;;;4968682;28;20078;-87
2021/01/12 13:02:09;;;;;;;2.03;1.02;;;13.90;60.30;;;;;;4964426;28;20024;-88